Malaysia Virtual Airlines Airport Information Service

Penang / Bayan Lepas

ICAO: WMKP Country: Malaysia
Latitude: 5.29714 Longitude: 100.277
Latest Arrival : FY3225 (WITT-WMKP) Latest Departure : FY3224 (WMKP-WITT)


WX CaptureLIVE
Data provided by noaa.gov | Fetched at 05:30:59

METAR : WMKP 290500Z 17005KT 120V230 9000 FEW017CB 28/25 Q1008 NOSIG

TAF : WMKP 282300Z 2900/3000 VRB03KT 8000 SCT025 BECMG 2905/2907 18006KT 9000 SCT020 TEMPO 2906/2911 5000 TSRA FEW010 FEW017CB BECMG 2911/2912 03006KT 8000 SCT025


Runway Data for WMKP
Data provided by openaviationdata.com

Runway ID Mag Var Hdg Length Elevation Surface ILS Freq ILS Id ILS Slope
4 0 42° 10954 ft 11 ft Asphalt 109.9 IPG 3
22 0 222° 10954 ft 11 ft Asphalt -- -- --

Penang / Bayan Lepas, Malaysia
Use only for reference purposes



Not for navigational purposes.